Time,TemperatureF,DewpointF,PressureIn,WindDirection,WindDirectionDegrees,WindSpeedMPH,WindSpeedGustMPH,Humidity,HourlyPrecipIn,Conditions,Clouds,dailyrainin,SoftwareType,DateUTC
2013-03-22 00:02:00,19.0,7.0,-100.00,WSW,240,7.0,14.0,57,0.00,,,-99.99,,2013-03-22 06:02:00,
2013-03-22 00:12:00,19.0,7.0,-100.00,WSW,256,9.0,16.0,58,0.00,,,-99.99,,2013-03-22 06:12:00,
2013-03-22 00:22:00,18.0,6.0,-100.00,WSW,257,9.0,15.0,59,0.00,,,-99.99,,2013-03-22 06:22:00,
2013-03-22 00:32:00,18.0,5.0,-100.00,West,265,7.0,12.0,56,0.00,,,-99.99,,2013-03-22 06:32:00,
2013-03-22 00:42:00,18.0,5.0,-100.00,West,260,7.0,15.0,55,0.00,,,-99.99,,2013-03-22 06:42:00,
2013-03-22 00:52:00,18.0,5.0,-100.00,WSW,257,7.0,14.0,56,0.00,,,-99.99,,2013-03-22 06:52:00,
2013-03-22 01:02:00,18.0,5.0,-100.00,West,264,6.0,11.0,57,0.00,,,-99.99,,2013-03-22 07:02:00,
2013-03-22 01:12:00,17.0,5.0,-100.00,West,263,6.0,9.0,58,0.00,,,-99.99,,2013-03-22 07:12:00,
2013-03-22 01:22:00,18.0,6.0,-100.00,WSW,258,6.0,14.0,60,0.00,,,-99.99,,2013-03-22 07:22:00,
2013-03-22 01:32:00,18.0,6.0,-100.00,WSW,256,10.0,20.0,59,0.00,,,-99.99,,2013-03-22 07:32:00,
2013-03-22 01:42:00,18.0,6.0,-100.00,WSW,254,13.0,24.0,58,0.00,,,-99.99,,2013-03-22 07:42:00,
2013-03-22 01:52:00,18.0,6.0,-100.00,West,261,12.0,21.0,60,0.00,,,-99.99,,2013-03-22 07:52:00,
2013-03-22 02:03:00,18.0,6.0,-100.00,West,274,11.0,18.0,60,0.00,,,-99.99,,2013-03-22 08:03:00,
2013-03-22 02:12:00,18.0,7.0,-100.00,West,277,12.0,18.0,61,0.00,,,-99.99,,2013-03-22 08:12:00,
2013-03-22 02:22:00,17.0,6.0,-100.00,WNW,284,4.0,9.0,63,0.00,,,-99.99,,2013-03-22 08:22:00,
2013-03-22 02:32:00,18.0,6.0,-100.00,West,280,4.0,9.0,61,0.00,,,-99.99,,2013-03-22 08:32:00,
2013-03-22 02:42:00,18.0,7.0,-100.00,NW,323,4.0,9.0,61,0.00,,,-99.99,,2013-03-22 08:42:00,
2013-03-22 02:52:00,18.0,8.0,-100.00,NW,312,7.0,11.0,65,0.00,,,-99.99,,2013-03-22 08:52:00,
2013-03-22 03:02:00,17.0,8.0,-100.00,NW,308,7.0,11.0,67,0.00,,,-99.99,,2013-03-22 09:02:00,
2013-03-22 03:12:00,18.0,8.0,-100.00,NW,313,8.0,11.0,64,0.00,,,-99.99,,2013-03-22 09:12:00,
2013-03-22 03:22:00,18.0,8.0,-100.00,NW,312,10.0,13.0,66,0.00,,,-99.99,,2013-03-22 09:22:00,
2013-03-22 03:32:00,18.0,8.0,-100.00,NW,306,10.0,16.0,67,0.00,,,-99.99,,2013-03-22 09:32:00,
2013-03-22 03:42:00,17.0,9.0,-100.00,NW,319,9.0,14.0,69,0.00,,,-99.99,,2013-03-22 09:42:00,
2013-03-22 03:53:00,17.0,9.0,-100.00,NW,316,9.0,16.0,68,0.00,,,-99.99,,2013-03-22 09:53:00,
2013-03-22 04:03:00,18.0,7.0,-100.00,NNW,332,9.0,15.0,62,0.00,,,-99.99,,2013-03-22 10:03:00,
2013-03-22 04:12:00,17.0,9.0,-100.00,NNW,329,6.0,11.0,68,0.00,,,-99.99,,2013-03-22 10:12:00,
2013-03-22 04:22:00,17.0,8.0,-100.00,NW,326,8.0,12.0,66,0.00,,,-99.99,,2013-03-22 10:22:00,
2013-03-22 04:32:00,17.0,8.0,-100.00,NW,322,10.0,14.0,67,0.00,,,-99.99,,2013-03-22 10:32:00,
2013-03-22 04:42:00,18.0,8.0,-100.00,NW,311,12.0,16.0,63,0.00,,,-99.99,,2013-03-22 10:42:00,
2013-03-22 04:52:00,17.0,9.0,-100.00,NW,304,11.0,17.0,68,0.00,,,-99.99,,2013-03-22 10:52:00,
2013-03-22 05:03:00,17.0,8.0,-100.00,NW,311,12.0,17.0,68,0.00,,,-99.99,,2013-03-22 11:03:00,
2013-03-22 05:12:00,17.0,5.0,-100.00,WNW,302,10.0,17.0,58,0.00,,,-99.99,,2013-03-22 11:12:00,
2013-03-22 05:22:00,17.0,5.0,-100.00,NW,315,7.0,12.0,58,0.00,,,-99.99,,2013-03-22 11:22:00,
2013-03-22 05:33:00,18.0,3.0,-100.00,NW,320,6.0,12.0,52,0.00,,,-99.99,,2013-03-22 11:33:00,
2013-03-22 05:42:00,17.0,4.0,-100.00,WNW,301,4.0,7.0,56,0.00,,,-99.99,,2013-03-22 11:42:00,
2013-03-22 05:52:00,14.0,7.0,-100.00,South,188,6.0,12.0,71,0.00,,,-99.99,,2013-03-22 11:52:00,
2013-03-22 06:02:00,14.0,8.0,-100.00,SE,137,8.0,13.0,75,0.00,,,-99.99,,2013-03-22 12:02:00,
2013-03-22 06:12:00,15.0,8.0,-100.00,SE,133,9.0,12.0,75,0.00,,,-99.99,,2013-03-22 12:12:00,
2013-03-22 06:22:00,14.0,8.0,-100.00,ESE,110,7.0,11.0,73,0.00,,,-99.99,,2013-03-22 12:22:00,
2013-03-22 06:32:00,14.0,6.0,-100.00,ESE,119,6.0,7.0,69,0.00,,,-99.99,,2013-03-22 12:32:00,
2013-03-22 06:42:00,15.0,5.0,-100.00,SSE,147,4.0,8.0,66,0.00,,,-99.99,,2013-03-22 12:42:00,
2013-03-22 06:52:00,14.0,5.0,-100.00,SE,127,3.0,7.0,66,0.00,,,-99.99,,2013-03-22 12:52:00,
2013-03-22 07:02:00,15.0,5.0,-100.00,SE,141,7.0,12.0,63,0.00,,,-99.99,,2013-03-22 13:02:00,
2013-03-22 07:12:00,14.0,5.0,-100.00,SE,136,9.0,12.0,69,0.00,,,-99.99,,2013-03-22 13:12:00,
2013-03-22 07:22:00,15.0,4.0,-100.00,SE,137,5.0,8.0,62,0.00,,,-99.99,,2013-03-22 13:22:00,
2013-03-22 07:32:00,14.0,5.0,-100.00,SE,124,7.0,13.0,66,0.00,,,-99.99,,2013-03-22 13:32:00,
2013-03-22 07:42:00,16.0,3.0,-100.00,SE,124,8.0,14.0,55,0.00,,,-99.99,,2013-03-22 13:42:00,
2013-03-22 07:52:00,16.0,4.0,-100.00,SE,133,9.0,14.0,57,0.00,,,-99.99,,2013-03-22 13:52:00,
2013-03-22 08:02:00,17.0,4.0,-100.00,SE,131,7.0,14.0,56,0.00,,,-99.99,,2013-03-22 14:02:00,
2013-03-22 08:12:00,18.0,2.0,-100.00,SE,136,6.0,10.0,49,0.00,,,-99.99,,2013-03-22 14:12:00,
2013-03-22 08:22:00,17.0,5.0,-100.00,SE,128,4.0,7.0,58,0.00,,,-99.99,,2013-03-22 14:22:00,
2013-03-22 08:32:00,19.0,3.0,-100.00,SE,126,4.0,8.0,51,0.00,,,-99.99,,2013-03-22 14:32:00,
2013-03-22 08:42:00,20.0,4.0,-100.00,SE,128,4.0,8.0,50,0.00,,,-99.99,,2013-03-22 14:42:00,
2013-03-22 08:52:00,22.0,3.0,-100.00,SW,230,1.0,6.0,43,0.00,,,-99.99,,2013-03-22 14:52:00,
2013-03-22 09:02:00,21.0,3.0,-100.00,ENE,69,3.0,6.0,45,0.00,,,-99.99,,2013-03-22 15:02:00,
2013-03-22 09:12:00,20.0,4.0,-100.00,North,1,5.0,11.0,49,0.00,,,-99.99,,2013-03-22 15:12:00,
2013-03-22 09:22:00,19.0,4.0,-100.00,NNW,339,7.0,13.0,51,0.00,,,-99.99,,2013-03-22 15:22:00,
2013-03-22 09:32:00,20.0,4.0,-100.00,West,265,6.0,11.0,49,0.00,,,-99.99,,2013-03-22 15:32:00,
2013-03-22 09:42:00,20.0,4.0,-100.00,South,174,6.0,14.0,50,0.00,,,-99.99,,2013-03-22 15:42:00,
2013-03-22 09:52:00,19.0,5.0,-100.00,South,186,8.0,14.0,52,0.00,,,-99.99,,2013-03-22 15:52:00,
2013-03-22 10:02:00,20.0,6.0,-100.00,SW,230,13.0,26.0,55,0.00,,,-99.99,,2013-03-22 16:02:00,
2013-03-22 10:13:00,21.0,6.0,-100.00,WSW,240,15.0,29.0,52,0.00,,,-99.99,,2013-03-22 16:13:00,
2013-03-22 10:22:00,20.0,6.0,-100.00,WSW,241,22.0,38.0,53,0.00,,,-99.99,,2013-03-22 16:22:00,
2013-03-22 10:32:00,21.0,7.0,-100.00,SW,234,20.0,30.0,54,0.00,,,-99.99,,2013-03-22 16:32:00,
2013-03-22 10:42:00,22.0,8.0,-100.00,SW,234,19.0,35.0,56,0.00,,,-99.99,,2013-03-22 16:42:00,
2013-03-22 10:52:00,22.0,7.0,-100.00,SW,232,19.0,32.0,53,0.00,,,-99.99,,2013-03-22 16:52:00,
2013-03-22 11:03:00,22.0,8.0,-100.00,WSW,239,18.0,34.0,54,0.00,,,-99.99,,2013-03-22 17:03:00,
2013-03-22 11:12:00,22.0,9.0,-100.00,WSW,240,13.0,23.0,56,0.00,,,-99.99,,2013-03-22 17:12:00,
2013-03-22 11:23:00,22.0,9.0,-100.00,WSW,240,13.0,23.0,56,0.00,,,-99.99,,2013-03-22 17:23:00,
2013-03-22 11:32:00,23.0,13.0,-100.00,SW,234,16.0,24.0,65,0.00,,,-99.99,,2013-03-22 17:32:00,
2013-03-22 11:42:00,21.0,15.0,-100.00,WSW,241,12.0,23.0,78,0.01,,,-99.99,,2013-03-22 17:42:00,
2013-03-22 11:52:00,22.0,11.0,-100.00,WSW,241,14.0,26.0,63,0.00,,,-99.99,,2013-03-22 17:52:00,
2013-03-22 12:02:00,23.0,11.0,-100.00,SW,224,16.0,25.0,60,0.00,,,-99.99,,2013-03-22 18:02:00,
2013-03-22 12:12:00,24.0,9.0,-100.00,SW,217,15.0,27.0,53,0.00,,,-99.99,,2013-03-22 18:12:00,
2013-03-22 12:22:00,24.0,12.0,-100.00,WSW,241,14.0,26.0,60,0.00,,,-99.99,,2013-03-22 18:22:00,
2013-03-22 12:33:00,22.0,12.0,-100.00,WSW,254,16.0,23.0,64,0.00,,,-99.99,,2013-03-22 18:33:00,
2013-03-22 12:42:00,23.0,14.0,-100.00,WSW,239,15.0,24.0,67,0.00,,,-99.99,,2013-03-22 18:42:00,
2013-03-22 12:52:00,23.0,14.0,-100.00,WSW,239,15.0,24.0,67,0.00,,,-99.99,,2013-03-22 18:52:00,
2013-03-22 13:02:00,23.0,14.0,-100.00,WSW,239,15.0,24.0,67,0.00,,,-99.99,,2013-03-22 19:02:00,
2013-03-22 13:12:00,23.0,14.0,-100.00,WSW,239,15.0,24.0,67,0.00,,,-99.99,,2013-03-22 19:12:00,
2013-03-22 13:22:00,23.0,14.0,-100.00,WSW,239,15.0,24.0,67,0.00,,,-99.99,,2013-03-22 19:22:00,
2013-03-22 14:11:00,25.0,-1.0,-100.00,WSW,253,18.0,34.0,32,0.00,,,-99.99,,2013-03-22 20:11:00,
2013-03-22 14:22:00,25.0,0.0,-100.00,WSW,253,15.0,24.0,34,0.00,,,-99.99,,2013-03-22 20:22:00,
2013-03-22 14:32:00,25.0,-1.0,-100.00,WSW,253,18.0,34.0,32,0.00,,,-99.99,,2013-03-22 20:32:00,
2013-03-22 14:43:00,25.0,-1.0,-100.00,WSW,253,18.0,34.0,32,0.00,,,-99.99,,2013-03-22 20:43:00,
2013-03-22 14:52:00,25.0,-1.0,-100.00,WSW,253,18.0,34.0,32,0.00,,,-99.99,,2013-03-22 20:52:00,
2013-03-22 15:03:00,25.0,-1.0,-100.00,WSW,253,18.0,34.0,32,0.00,,,-99.99,,2013-03-22 21:03:00,
2013-03-22 15:33:00,23.0,7.0,-100.00,WSW,251,17.0,27.0,50,0.00,,,-99.99,,2013-03-22 21:33:00,
2013-03-22 15:43:00,22.0,7.0,-100.00,WSW,256,17.0,23.0,53,0.00,,,-99.99,,2013-03-22 21:43:00,
2013-03-22 15:53:00,24.0,1.0,-100.00,West,267,17.0,26.0,37,0.00,,,-99.99,,2013-03-22 21:53:00,
2013-03-22 16:03:00,25.0,-1.0,-100.00,WSW,257,17.0,25.0,31,0.00,,,-99.99,,2013-03-22 22:03:00,
2013-03-22 16:12:00,25.0,-2.0,-100.00,WSW,247,16.0,25.0,30,0.00,,,-99.99,,2013-03-22 22:12:00,
2013-03-22 16:23:00,25.0,-2.0,-100.00,WSW,248,14.0,23.0,30,0.00,,,-99.99,,2013-03-22 22:23:00,
2013-03-22 16:32:00,25.0,-2.0,-100.00,WSW,248,14.0,23.0,30,0.00,,,-99.99,,2013-03-22 22:32:00,
2013-03-22 16:42:00,25.0,-2.0,-100.00,WSW,248,14.0,23.0,30,0.00,,,-99.99,,2013-03-22 22:42:00,
2013-03-22 16:52:00,25.0,-2.0,-100.00,WSW,248,14.0,23.0,30,0.00,,,-99.99,,2013-03-22 22:52:00,
2013-03-22 20:22:00,18.0,4.0,-100.00,NNW,330,11.0,13.0,52,0.00,,,-99.99,,2013-03-23 02:22:00,
2013-03-22 20:32:00,18.0,5.0,-100.00,NW,325,9.0,12.0,55,0.00,,,-99.99,,2013-03-23 02:32:00,
2013-03-22 20:42:00,18.0,6.0,-100.00,NW,319,9.0,13.0,60,0.00,,,-99.99,,2013-03-23 02:42:00,
2013-03-22 20:52:00,18.0,6.0,-100.00,NW,320,8.0,12.0,59,0.00,,,-99.99,,2013-03-23 02:52:00,
2013-03-22 21:02:00,17.0,7.0,-100.00,NW,309,9.0,13.0,62,0.00,,,-99.99,,2013-03-23 03:02:00,
2013-03-22 21:12:00,17.0,8.0,-100.00,WNW,301,10.0,13.0,65,0.00,,,-99.99,,2013-03-23 03:12:00,
2013-03-22 21:22:00,16.0,9.0,-100.00,WNW,284,10.0,12.0,71,0.00,,,-99.99,,2013-03-23 03:22:00,
2013-03-22 21:33:00,16.0,9.0,-100.00,West,281,9.0,11.0,72,0.00,,,-99.99,,2013-03-23 03:33:00,
2013-03-22 21:43:00,16.0,10.0,-100.00,WNW,289,9.0,11.0,75,0.00,,,-99.99,,2013-03-23 03:43:00,
2013-03-22 21:53:00,16.0,9.0,-100.00,WNW,296,9.0,11.0,74,0.00,,,-99.99,,2013-03-23 03:53:00,
2013-03-22 22:02:00,17.0,10.0,-100.00,WNW,294,9.0,11.0,74,0.00,,,-99.99,,2013-03-23 04:02:00,
2013-03-22 22:12:00,16.0,10.0,-100.00,WNW,291,9.0,12.0,77,0.00,,,-99.99,,2013-03-23 04:12:00,
2013-03-22 22:23:00,15.0,10.0,-100.00,WNW,287,11.0,13.0,81,0.00,,,-99.99,,2013-03-23 04:23:00,
2013-03-22 22:32:00,15.0,11.0,-100.00,West,278,10.0,12.0,81,0.00,,,-99.99,,2013-03-23 04:32:00,
2013-03-22 22:43:00,15.0,11.0,-100.00,WNW,282,8.0,11.0,83,0.00,,,-99.99,,2013-03-23 04:43:00,
2013-03-22 22:53:00,15.0,12.0,-100.00,WNW,282,11.0,13.0,88,0.00,,,-99.99,,2013-03-23 04:53:00,
2013-03-22 23:02:00,15.0,11.0,-100.00,WNW,287,9.0,11.0,87,0.00,,,-99.99,,2013-03-23 05:02:00,
2013-03-22 23:12:00,15.0,11.0,-100.00,WNW,289,9.0,11.0,85,0.00,,,-99.99,,2013-03-23 05:12:00,
2013-03-22 23:22:00,15.0,11.0,-100.00,WNW,301,7.0,9.0,83,0.00,,,-99.99,,2013-03-23 05:22:00,
2013-03-22 23:32:00,15.0,11.0,-100.00,WNW,296,6.0,8.0,84,0.00,,,-99.99,,2013-03-23 05:32:00,
2013-03-22 23:42:00,15.0,11.0,-100.00,WNW,295,6.0,8.0,86,0.01,,,-99.99,,2013-03-23 05:42:00,
2013-03-22 23:52:00,14.0,13.0,-100.00,NW,308,3.0,5.0,92,0.06,,,-99.99,,2013-03-23 05:52:00,